ダーウィン国際空港の過去48時間の天気

ダーウィン国際空港 (Darwin Airport)

現在時刻: 9/26 07:20 ACST (9/25 21:50 UTC) 以下の時間は現地時間です。

過去48時間のMETAR気象情報
時間 風向 風速(m/s) 視程 気温(℃) 湿度(%) 気圧(hPa) 天気現象
26 07:00 東北東 3 10km以上 25 94 1010
26 06:30 2 10km以上 25 94 1009
26 06:00 2 10km以上 25 94 1009
26 05:30 東南東 2 10km以上 26 89 1008
26 05:00 南東 2 10km以上 26 89 1008
26 04:30 南東 2 10km以上 26 89 1008
26 04:00 南東 2 10km以上 26 94 1008
26 03:30 南南西 2 10km以上 26 94 1008
26 03:00 南南西 2 10km以上 27 89 1008
26 02:30 南西 2 10km以上 27 89 1008
26 02:00 南西 2 10km以上 27 89 1009
26 01:30 南西 2 10km以上 27 89 1009
26 01:00 南西 2 10km以上 28 84 1009
26 00:30 西南西 2 10km以上 28 84 1010
26 00:00 西 2 10km以上 28 84 1010
25 23:30 西 2 10km以上 28 84 1010
25 23:00 西 2 10km以上 28 79 1010
25 22:30 西 2 10km以上 28 84 1010
25 22:00 西 3 10km以上 28 79 1009
25 21:30 西 2 10km以上 28 79 1009
25 21:00 西 3 10km以上 29 74 1009
25 20:30 西 3 10km以上 29 74 1009
25 20:00 西 3 10km以上 29 74 1008
25 19:30 西 3 10km以上 29 74 1008
25 19:00 西 4 10km以上 30 70 1008
25 18:30 西北西 5 10km以上 30 70 1007
25 18:00 西北西 5 10km以上 31 66 1007
25 17:00 西北西 7 10km以上 32 56 1007
25 16:30 西北西 8 10km以上 31 66 1007
25 16:00 西北西 8 10km以上 33 59 1007
25 15:30 北西 7 10km以上 32 67 1007
25 15:00 北西 8 10km以上 32 63 1007
25 14:30 北西 6 10km以上 33 63 1008
25 14:00 北西 7 10km以上 32 67 1008
25 13:30 北西 6 10km以上 32 63 1009
25 13:00 西北西 6 10km以上 32 67 1009
25 12:30 北西 5 10km以上 32 67 1010
25 12:00 北西 5 10km以上 31 75 1011
25 11:30 北西 5 10km以上 30 79 1011
25 11:00 北西 4 10km以上 29 84 1011
25 10:30 北北西 4 10km以上 29 84 1012 しゅう雨
25 10:00 北西 4 10km以上 30 75 1012 弱いしゅう雨
25 09:30 北北西 4 10km以上 30 75 1012
25 09:00 北北西 4 10km以上 30 70 1012
25 08:30 北北西 4 10km以上 29 79 1011 周辺でしゅう雨
25 08:00 北西 2 10km以上 29 79 1011 周辺でしゅう雨
25 07:30 北北西 3 10km以上 29 79 1011
25 07:20 北北西 2 10km以上 28 84 1010
25 07:00 北北西 2 10km以上 28 84 1010
25 06:30 北北西 2 10km以上 28 84 1010
25 06:00 北北西 2 10km以上 28 84 1009
25 05:30 3 10km以上 28 84 1009 周辺でしゅう雨
25 05:00 北北西 3 10km以上 28 84 1009
25 04:30 北北西 1 10km以上 27 89 1009
25 04:00 北西 2 10km以上 28 84 1009
25 03:30 西北西 2 10km以上 28 79 1009
25 03:00 北西 3 10km以上 28 84 1009
25 02:30 北北西 1 10km以上 28 79 1009
25 02:00 北北西 3 10km以上 28 84 1009
25 01:30 西 3 10km以上 28 79 1009
25 01:00 西 2 10km以上 29 74 1009
25 00:30 西 2 10km以上 29 74 1010
25 00:00 西 3 10km以上 29 74 1010
24 23:30 西 3 10km以上 29 74 1010
24 23:00 西北西 3 10km以上 29 74 1010
24 22:30 西 3 10km以上 29 74 1010
24 22:00 西 3 10km以上 29 79 1009
24 21:30 西 3 10km以上 29 74 1009
24 21:00 西 4 10km以上 29 79 1009
24 20:30 西 4 10km以上 29 74 1009
24 20:00 西 4 10km以上 30 70 1008
24 19:30 西 4 10km以上 30 70 1008
24 19:00 西 4 10km以上 30 70 1007
24 18:30 西北西 4 10km以上 31 66 1007
24 18:00 西北西 5 10km以上 32 56 1007
24 17:30 西北西 6 10km以上 32 59 1006
24 17:00 西北西 6 10km以上 32 59 1006
24 16:30 北西 6 10km以上 33 56 1006
24 16:00 北西 5 10km以上 34 53 1006
24 15:30 西北西 5 10km以上 33 53 1006
24 15:00 北西 5 10km以上 33 56 1007
24 14:30 北西 5 10km以上 34 53 1007
24 14:00 北西 5 10km以上 33 56 1008
24 13:30 北西 5 10km以上 33 56 1008
24 13:00 北西 5 10km以上 32 59 1009
24 12:30 北西 4 10km以上 33 59 1010
24 12:00 北西 3 10km以上 32 59 1010
24 11:30 北北西 3 10km以上 32 63 1011
24 11:00 北北西 3 10km以上 32 67 1011
24 10:30 北西 3 10km以上 30 70 1011
24 10:00 西 3 10km以上 30 70 1012
24 09:30 西北西 3 10km以上 30 70 1011
24 09:00 2 10km以上 30 70 1011
24 08:30 南東 1 10km以上 29 74 1011
24 08:00 東南東 2 10km以上 29 79 1011
24 07:30 北北西 1 10km以上 28 84 1010
YPDN 252130Z 07005KT 9999 FEW015 25/24 Q1010
YPDN 252100Z 08003KT 9999 FEW015 25/24 Q1009
YPDN 252030Z 10004KT 9999 FEW015 25/24 Q1009
YPDN 252000Z 11004KT CAVOK 26/24 Q1008
YPDN 251930Z AUTO 13003KT 9999 // NCD 26/24 Q1008
YPDN 251900Z AUTO 14003KT 9999 // NCD 26/24 Q1008
YPDN 251830Z AUTO 14003KT 9999 // NCD 26/25 Q1008
YPDN 251800Z AUTO 20003KT 9999 // SCT017 26/25 Q1008
YPDN 251730Z AUTO 20003KT 9999 // NCD 27/25 Q1008
YPDN 251700Z AUTO 22003KT 9999 // NCD 27/25 Q1008
YPDN 251630Z AUTO 22003KT 9999 // NCD 27/25 Q1009
YPDN 251600Z AUTO 22004KT 9999 // NCD 27/25 Q1009
YPDN 251530Z AUTO 23004KT 9999 // NCD 28/25 Q1009
YPDN 251500Z AUTO 25004KT 9999 // SCT017 28/25 Q1010
YPDN 251430Z 26003KT 9999 FEW015 28/25 Q1010
YPDN 251400Z 27004KT 9999 FEW015 28/25 Q1010
YPDN 251330Z 27004KT 9999 FEW015 28/24 Q1010
YPDN 251300Z 27004KT CAVOK 28/25 Q1010
YPDN 251230Z 27005KT CAVOK 28/24 Q1009
YPDN 251200Z 28004KT CAVOK 28/24 Q1009
YPDN 251130Z 27005KT CAVOK 29/24 Q1009
YPDN 251100Z 26005KT CAVOK 29/24 Q1009
YPDN 251030Z 27006KT CAVOK 29/24 Q1008
YPDN 251000Z 27006KT CAVOK 29/24 Q1008
YPDN 250930Z 28007KT 9999 FEW025 30/24 Q1008
YPDN 250900Z 29009KT 9999 FEW030 30/24 Q1007
YPDN 250830Z 29010KT 9999 FEW030 31/24 Q1007
YPDN 250730Z 30013KT 9999 FEW030 SCT400 32/22 Q1007
YPDN 250700Z 30015KT 9999 FEW030 SCT400 31/24 Q1007
YPDN 250630Z 30015KT 9999 FEW030 SCT400 33/24 Q1007
YPDN 250600Z 32014KT 9999 FEW030 SCT400 32/25 Q1007
YPDN 250530Z 31015KT 9999 FEW030 SCT400 32/24 Q1007
YPDN 250500Z 31012KT 9999 FEW032 SCT400 33/25 Q1008
YPDN 250430Z 31013KT 9999 FEW028 BKN400 32/25 Q1008
YPDN 250400Z 31011KT 9999 FEW030 BKN400 32/24 Q1009
YPDN 250330Z 30011KT 9999 FEW026 BKN400 32/25 Q1009
YPDN 250300Z 32010KT 9999 FEW024 BKN400 32/25 Q1010
YPDN 250230Z 31009KT 9999 FEW020 BKN400 31/26 Q1011
YPDN 250200Z 31009KT 9999 SCT018 BKN400 30/26 Q1011
YPDN 250130Z 31008KT 9999 SCT018 BKN440 29/26 Q1011 RESHRA
YPDN 250100Z 33008KT 9999 SHRA SCT018 FEW018TCU 29/26 Q1012
YPDN 250030Z 31007KT 9999 -SHRA SCT020 FEW020TCU 30/25 Q1012
YPDN 250000Z 33007KT 9999 SCT020 FEW020TCU 30/25 Q1012
YPDN 242330Z 33007KT 9999 FEW018 SCT400 FEW018CB 30/24 Q1012
YPDN 242300Z 33007KT 9999 VCSH FEW016 FEW016TCU 29/25 Q1011
YPDN 242230Z 32004KT 9999 VCSH SCT014 FEW014TCU 29/25 Q1011
YPDN 242200Z 33005KT 9999 SCT014 FEW014TCU 29/25 Q1011 RF00/0/000/0
YPDN 242150Z 33003KT 9999 BKN014 28/25 Q1010
YPDN 242130Z 33003KT 9999 FEW016 28/25 Q1010
YPDN 242100Z 33004KT 9999 SCT016 28/25 Q1010
YPDN 242030Z 34004KT 9999 SCT015 FEW015TCU 28/25 Q1009
YPDN 242000Z 35005KT 9999 VCSH BKN015 FEW015TCU 28/25 Q1009
YPDN 241930Z AUTO 33005KT 9999 // SCT015 BKN021 BKN027 28/25 Q1009
YPDN 241900Z AUTO 33002KT 9999 // SCT017 BKN021 BKN031 27/25 Q1009
YPDN 241830Z AUTO 31004KT 270V330 9999 // SCT016 28/25 Q1009
YPDN 241800Z AUTO 29003KT 9999 // SCT018 28/24 Q1009
YPDN 241730Z AUTO 31005KT 9999 // SCT018 28/25 Q1009
YPDN 241700Z AUTO 33002KT 9999 // SCT015 BKN019 BKN034 28/24 Q1009
YPDN 241630Z AUTO 34005KT 9999 // SCT015 BKN019 BKN025 28/25 Q1009
YPDN 241600Z AUTO 28005KT 260V330 9999 // NCD 28/24 Q1009
YPDN 241530Z AUTO 26003KT 9999 // NCD 29/24 Q1009
YPDN 241500Z AUTO 27004KT 9999 // BKN062 29/24 Q1010
YPDN 241430Z 27005KT 9999 FEW018 29/24 Q1010
YPDN 241400Z 27005KT 9999 FEW018 29/24 Q1010
YPDN 241330Z 29005KT 9999 FEW018 29/24 Q1010
YPDN 241300Z 28006KT 9999 FEW018 29/24 Q1010
YPDN 241230Z 27005KT 9999 FEW015 29/25 Q1009
YPDN 241200Z 27006KT 9999 FEW017 29/24 Q1009
YPDN 241130Z 27008KT 9999 FEW016 29/25 Q1009
YPDN 241100Z 28007KT 9999 FEW017 29/24 Q1009
YPDN 241030Z 27008KT 9999 FEW016 30/24 Q1008
YPDN 241000Z 28008KT 9999 FEW020 30/24 Q1008
YPDN 240930Z 28008KT 9999 FEW025 30/24 Q1007
YPDN 240900Z 29007KT 9999 FEW030 31/24 Q1007
YPDN 240830Z 29010KT 9999 FEW038 32/22 Q1007
YPDN 240800Z 29011KT 9999 FEW038 32/23 Q1006
YPDN 240730Z 30011KT 9999 FEW040 32/23 Q1006
YPDN 240700Z 31011KT 9999 FEW040 33/23 Q1006
YPDN 240630Z 31009KT 9999 FEW040 34/23 Q1006
YPDN 240600Z 30010KT 9999 FEW044 33/22 Q1006
YPDN 240530Z 31010KT 9999 FEW044 33/23 Q1007
YPDN 240500Z 32009KT 9999 FEW042 34/23 Q1007
YPDN 240430Z 31010KT 9999 FEW040 33/23 Q1008
YPDN 240400Z 32009KT 9999 FEW037 33/23 Q1008
YPDN 240330Z 31010KT 9999 SCT035 32/23 Q1009
YPDN 240300Z 31008KT 9999 SCT032 33/24 Q1010
YPDN 240230Z 31006KT 9999 SCT032 32/23 Q1010
YPDN 240200Z 34006KT 290V360 9999 FEW026 32/24 Q1011
YPDN 240130Z 34006KT 9999 SCT025 FEW025TCU 32/25 Q1011
YPDN 240100Z 32006KT 9999 BKN025 FEW025TCU 30/24 Q1011
YPDN 240030Z 26005KT 9999 BKN028 FEW028TCU 30/24 Q1012
YPDN 240000Z 30005KT 270V330 9999 SCT026 30/24 Q1011
YPDN 232330Z 19003KT 9999 BKN021 30/24 Q1011
YPDN 232300Z 13001KT 9999 SCT019 29/24 Q1011
YPDN 232230Z 11003KT 9999 FEW015 29/25 Q1011
YPDN 232200Z 33001KT 9999 FEW012 28/25 Q1010